Du har inga inställningar för hoppväder.nu

Hoppväder.nu

Senast uppdaterat 04:10

UTC-tid

2020-11-26 kl. 03:10


Sol och måne

Solen går upp 8:50 och går ner 14:03 (beräknade cirkatider)
Nästa fullmåne blir om 4 dagar (2020-11-30)

METAR

ESNU (Umeå)
(20 minuter sedan)
ESNU 260250Z VRB02KT 9999 SCT023 BKN029 01/00 Q0999=



ESNO (Örnsköldsvik)
(20 minuter sedan)
ESNO 260250Z AUTO 28013KT 9999 NCD 03/01 Q1000=



ESNS (Skellefteå)
(20 minuter sedan)
ESNS 260250Z AUTO 28015KT 9999 BKN018/// 01/M01 Q0997=









TAF

ESNU (Umeå)
(40 minuter sedan)
ESNU 260230Z 2603/2612 24003KT CAVOK=



ESNO (Örnsköldsvik)
ESNO



ESNS (Skellefteå)
ESNS





Kodnycklar till TAF och METAR






LHP

(Umeå är område se44c i Delområde 1)

Prognos är inte uppdaterad






Preliminär prognos